sensor_id;sensor_type;location;lat;lon;timestamp;temperature;humidity
49052;DHT22;34866;48.670;18.260;2023-04-23T00:00:06;103.20;2227.20
49052;DHT22;34866;48.670;18.260;2023-04-23T00:02:33;128.80;2252.80
49052;DHT22;34866;48.670;18.260;2023-04-23T00:05:04;128.90;2252.80
49052;DHT22;34866;48.670;18.260;2023-04-23T00:07:33;128.90;2252.80
49052;DHT22;34866;48.670;18.260;2023-04-23T00:10:00;153.60;2252.80
49052;DHT22;34866;48.670;18.260;2023-04-23T00:12:28;153.60;2252.80
49052;DHT22;34866;48.670;18.260;2023-04-23T00:14:54;128.90;2252.80
49052;DHT22;34866;48.670;18.260;2023-04-23T00:17:27;153.60;2252.80
49052;DHT22;34866;48.670;18.260;2023-04-23T00:19:53;128.90;2252.80
49052;DHT22;34866;48.670;18.260;2023-04-23T00:22:18;128.60;2252.80
49052;DHT22;34866;48.670;18.260;2023-04-23T00:24:48;128.50;2252.80
49052;DHT22;34866;48.670;18.260;2023-04-23T00:27:14;128.20;2252.80
49052;DHT22;34866;48.670;18.260;2023-04-23T00:29:40;128.20;2252.80
49052;DHT22;34866;48.670;18.260;2023-04-23T00:32:05;128.40;2252.80
49052;DHT22;34866;48.670;18.260;2023-04-23T00:34:32;128.40;2252.80
49052;DHT22;34866;48.670;18.260;2023-04-23T00:36:57;128.20;2252.80
49052;DHT22;34866;48.670;18.260;2023-04-23T00:39:23;128.40;2252.80
49052;DHT22;34866;48.670;18.260;2023-04-23T00:41:49;128.40;2252.80
49052;DHT22;34866;48.670;18.260;2023-04-23T00:44:14;128.50;2252.80
49052;DHT22;34866;48.670;18.260;2023-04-23T00:46:41;128.10;2252.80
49052;DHT22;34866;48.670;18.260;2023-04-23T00:49:07;128.30;2252.80
49052;DHT22;34866;48.670;18.260;2023-04-23T00:51:33;128.40;2252.80
49052;DHT22;34866;48.670;18.260;2023-04-23T00:53:58;128.20;2252.80
49052;DHT22;34866;48.670;18.260;2023-04-23T00:56:27;128.20;2252.80
49052;DHT22;34866;48.670;18.260;2023-04-23T00:58:53;128.20;2252.80
49052;DHT22;34866;48.670;18.260;2023-04-23T01:01:20;128.20;2252.80
49052;DHT22;34866;48.670;18.260;2023-04-23T01:03:50;102.80;2227.20
49052;DHT22;34866;48.670;18.260;2023-04-23T01:06:17;128.50;2252.80
49052;DHT22;34866;48.670;18.260;2023-04-23T01:08:44;128.40;2252.80
49052;DHT22;34866;48.670;18.260;2023-04-23T01:11:12;128.30;2252.80
49052;DHT22;34866;48.670;18.260;2023-04-23T01:13:40;128.10;2252.80
49052;DHT22;34866;48.670;18.260;2023-04-23T01:16:06;128.10;2252.80
49052;DHT22;34866;48.670;18.260;2023-04-23T01:18:35;128.20;2252.80
49052;DHT22;34866;48.670;18.260;2023-04-23T01:21:03;128.10;2252.80
49052;DHT22;34866;48.670;18.260;2023-04-23T01:23:29;103.20;2227.20
49052;DHT22;34866;48.670;18.260;2023-04-23T01:25:55;103.30;2227.20
49052;DHT22;34866;48.670;18.260;2023-04-23T01:28:22;103.30;2227.20
49052;DHT22;34866;48.670;18.260;2023-04-23T01:30:50;103.10;2227.20
49052;DHT22;34866;48.670;18.260;2023-04-23T01:33:16;103.00;2227.20
49052;DHT22;34866;48.670;18.260;2023-04-23T01:35:43;103.10;2227.20
49052;DHT22;34866;48.670;18.260;2023-04-23T01:38:10;103.30;2227.20
49052;DHT22;34866;48.670;18.260;2023-04-23T01:40:36;103.20;2227.20
49052;DHT22;34866;48.670;18.260;2023-04-23T01:43:03;103.20;2227.20
49052;DHT22;34866;48.670;18.260;2023-04-23T01:45:30;103.10;2227.20
49052;DHT22;34866;48.670;18.260;2023-04-23T01:47:56;103.10;2227.20
49052;DHT22;34866;48.670;18.260;2023-04-23T01:50:21;102.70;2227.20
49052;DHT22;34866;48.670;18.260;2023-04-23T01:52:49;103.00;2227.20
49052;DHT22;34866;48.670;18.260;2023-04-23T01:55:15;103.00;2227.20
49052;DHT22;34866;48.670;18.260;2023-04-23T01:57:44;102.90;2227.20
49052;DHT22;34866;48.670;18.260;2023-04-23T02:00:12;102.90;2227.20
49052;DHT22;34866;48.670;18.260;2023-04-23T02:02:40;102.70;2227.20
49052;DHT22;34866;48.670;18.260;2023-04-23T02:05:24;102.70;2227.20
49052;DHT22;34866;48.670;18.260;2023-04-23T02:07:53;102.70;2227.20
49052;DHT22;34866;48.670;18.260;2023-04-23T02:10:20;102.80;2227.20
49052;DHT22;34866;48.670;18.260;2023-04-23T02:12:46;102.80;2227.20
49052;DHT22;34866;48.670;18.260;2023-04-23T02:15:13;102.60;2227.20
49052;DHT22;34866;48.670;18.260;2023-04-23T02:17:39;102.70;2227.20
49052;DHT22;34866;48.670;18.260;2023-04-23T02:20:06;102.80;2227.20
49052;DHT22;34866;48.670;18.260;2023-04-23T02:22:35;102.80;2227.20
49052;DHT22;34866;48.670;18.260;2023-04-23T02:25:01;102.80;2227.20
49052;DHT22;34866;48.670;18.260;2023-04-23T02:27:27;102.80;2227.20
49052;DHT22;34866;48.670;18.260;2023-04-23T02:29:52;102.80;2227.20
49052;DHT22;34866;48.670;18.260;2023-04-23T02:32:19;102.60;2227.20
49052;DHT22;34866;48.670;18.260;2023-04-23T02:34:44;102.60;2227.20
49052;DHT22;34866;48.670;18.260;2023-04-23T02:37:10;102.50;2227.20
49052;DHT22;34866;48.670;18.260;2023-04-23T02:39:37;102.70;2227.20
49052;DHT22;34866;48.670;18.260;2023-04-23T02:42:05;102.60;2227.20
49052;DHT22;34866;48.670;18.260;2023-04-23T02:44:31;77.70;2227.20
49052;DHT22;34866;48.670;18.260;2023-04-23T02:46:57;102.40;2227.20
49052;DHT22;34866;48.670;18.260;2023-04-23T02:49:23;77.70;2227.20
49052;DHT22;34866;48.670;18.260;2023-04-23T02:51:51;102.50;2227.20
49052;DHT22;34866;48.670;18.260;2023-04-23T02:54:17;102.60;2227.20
49052;DHT22;34866;48.670;18.260;2023-04-23T02:56:45;102.60;2227.20
49052;DHT22;34866;48.670;18.260;2023-04-23T02:59:11;102.60;2227.20
49052;DHT22;34866;48.670;18.260;2023-04-23T03:01:37;102.60;2227.20
49052;DHT22;34866;48.670;18.260;2023-04-23T03:04:03;102.40;2227.20
49052;DHT22;34866;48.670;18.260;2023-04-23T03:06:29;102.40;2227.20
49052;DHT22;34866;48.670;18.260;2023-04-23T03:08:56;77.60;2227.20
49052;DHT22;34866;48.670;18.260;2023-04-23T03:11:23;77.70;2227.20
49052;DHT22;34866;48.670;18.260;2023-04-23T03:13:49;77.60;2227.20
49052;DHT22;34866;48.670;18.260;2023-04-23T03:16:15;77.60;2227.20
49052;DHT22;34866;48.670;18.260;2023-04-23T03:18:41;77.60;2227.20
49052;DHT22;34866;48.670;18.260;2023-04-23T03:21:07;77.70;2227.20
49052;DHT22;34866;48.670;18.260;2023-04-23T03:23:32;77.70;2227.20
49052;DHT22;34866;48.670;18.260;2023-04-23T03:25:58;77.50;2227.20
49052;DHT22;34866;48.670;18.260;2023-04-23T03:28:24;77.50;2227.20
49052;DHT22;34866;48.670;18.260;2023-04-23T03:30:50;77.50;2227.20
49052;DHT22;34866;48.670;18.260;2023-04-23T03:33:15;77.60;2227.20
49052;DHT22;34866;48.670;18.260;2023-04-23T03:35:41;77.70;2227.20
49052;DHT22;34866;48.670;18.260;2023-04-23T03:38:07;77.60;2227.20
49052;DHT22;34866;48.670;18.260;2023-04-23T03:40:33;77.60;2227.20
49052;DHT22;34866;48.670;18.260;2023-04-23T03:42:58;77.70;2227.20
49052;DHT22;34866;48.670;18.260;2023-04-23T03:45:26;77.50;2227.20
49052;DHT22;34866;48.670;18.260;2023-04-23T03:47:51;77.40;2227.20
49052;DHT22;34866;48.670;18.260;2023-04-23T03:50:17;77.40;2227.20
49052;DHT22;34866;48.670;18.260;2023-04-23T03:52:43;77.60;2227.20
49052;DHT22;34866;48.670;18.260;2023-04-23T03:55:09;77.50;2227.20
49052;DHT22;34866;48.670;18.260;2023-04-23T03:57:37;77.30;2227.20
49052;DHT22;34866;48.670;18.260;2023-04-23T04:00:04;77.40;2227.20
49052;DHT22;34866;48.670;18.260;2023-04-23T04:02:33;77.30;2227.20
49052;DHT22;34866;48.670;18.260;2023-04-23T04:05:01;77.40;1971.20
49052;DHT22;34866;48.670;18.260;2023-04-23T04:07:27;77.40;2048.00
49052;DHT22;34866;48.670;18.260;2023-04-23T04:09:53;77.30;2227.20
49052;DHT22;34866;48.670;18.260;2023-04-23T04:12:19;77.50;2227.20
49052;DHT22;34866;48.670;18.260;2023-04-23T04:14:45;102.40;2227.20
49052;DHT22;34866;48.670;18.260;2023-04-23T04:17:11;102.40;2227.20
49052;DHT22;34866;48.670;18.260;2023-04-23T04:19:38;77.70;2227.20
49052;DHT22;34866;48.670;18.260;2023-04-23T04:22:03;77.70;2227.20
49052;DHT22;34866;48.670;18.260;2023-04-23T04:24:29;102.50;2227.20
49052;DHT22;34866;48.670;18.260;2023-04-23T04:26:58;102.60;2227.20
49052;DHT22;34866;48.670;18.260;2023-04-23T04:29:25;102.60;2227.20
49052;DHT22;34866;48.670;18.260;2023-04-23T04:31:52;102.50;2227.20
49052;DHT22;34866;48.670;18.260;2023-04-23T04:34:18;102.60;2227.20
49052;DHT22;34866;48.670;18.260;2023-04-23T04:36:45;102.90;2227.20
49052;DHT22;34866;48.670;18.260;2023-04-23T04:39:15;102.90;2227.20
49052;DHT22;34866;48.670;18.260;2023-04-23T04:41:40;103.00;2227.20
49052;DHT22;34866;48.670;18.260;2023-04-23T04:44:07;103.00;2227.20
49052;DHT22;34866;48.670;18.260;2023-04-23T04:46:33;103.10;2227.20
49052;DHT22;34866;48.670;18.260;2023-04-23T04:49:06;103.20;2227.20
49052;DHT22;34866;48.670;18.260;2023-04-23T04:51:33;128.00;2252.80
49052;DHT22;34866;48.670;18.260;2023-04-23T04:53:59;128.20;2252.80
49052;DHT22;34866;48.670;18.260;2023-04-23T04:56:25;128.10;2252.80
49052;DHT22;34866;48.670;18.260;2023-04-23T04:58:51;128.30;2252.80
49052;DHT22;34866;48.670;18.260;2023-04-23T05:01:17;128.50;2252.80
49052;DHT22;34866;48.670;18.260;2023-04-23T05:03:43;128.60;2252.80
49052;DHT22;34866;48.670;18.260;2023-04-23T05:06:09;153.60;2252.80
49052;DHT22;34866;48.670;18.260;2023-04-23T05:08:38;153.60;2252.80
49052;DHT22;34866;48.670;18.260;2023-04-23T05:11:04;128.90;2252.80
49052;DHT22;34866;48.670;18.260;2023-04-23T05:13:29;153.80;2252.80
49052;DHT22;34866;48.670;18.260;2023-04-23T05:15:55;154.00;2252.80
49052;DHT22;34866;48.670;18.260;2023-04-23T05:18:25;154.30;2252.80
49052;DHT22;34866;48.670;18.260;2023-04-23T05:20:52;154.40;2252.80
49052;DHT22;34866;48.670;18.260;2023-04-23T05:23:17;179.20;2252.80
49052;DHT22;34866;48.670;18.260;2023-04-23T05:25:43;179.30;2252.80
49052;DHT22;34866;48.670;18.260;2023-04-23T05:28:09;179.40;2252.80
49052;DHT22;34866;48.670;18.260;2023-04-23T05:30:35;179.70;2252.80
49052;DHT22;34866;48.670;18.260;2023-04-23T05:33:00;231.00;204.80
49052;DHT22;34866;48.670;18.260;2023-04-23T05:35:33;256.70;6502.40
49052;DHT22;34866;48.670;18.260;2023-04-23T05:37:58;205.70;6502.40
49052;DHT22;34866;48.670;18.260;2023-04-23T05:40:24;205.50;716.80
49052;DHT22;34866;48.670;18.260;2023-04-23T05:42:50;230.50;6502.40
49052;DHT22;34866;48.670;18.260;2023-04-23T05:45:15;230.60;128.00
49052;DHT22;34866;48.670;18.260;2023-04-23T05:47:41;281.90;6528.00
49052;DHT22;34866;48.670;18.260;2023-04-23T05:50:08;307.30;128.00
49052;DHT22;34866;48.670;18.260;2023-04-23T05:52:38;256.60;6502.40
49052;DHT22;34866;48.670;18.260;2023-04-23T05:55:08;281.80;6528.00
49052;DHT22;34866;48.670;18.260;2023-04-23T05:57:38;256.80;6502.40
49052;DHT22;34866;48.670;18.260;2023-04-23T06:00:05;256.20;6502.40
49052;DHT22;34866;48.670;18.260;2023-04-23T06:02:34;256.30;6502.40
49052;DHT22;34866;48.670;18.260;2023-04-23T06:04:59;256.30;6502.40
49052;DHT22;34866;48.670;18.260;2023-04-23T06:07:26;256.30;6502.40
49052;DHT22;34866;48.670;18.260;2023-04-23T06:09:52;256.40;6502.40
49052;DHT22;34866;48.670;18.260;2023-04-23T06:12:18;256.60;6502.40
49052;DHT22;34866;48.670;18.260;2023-04-23T06:14:44;256.90;6502.40
49052;DHT22;34866;48.670;18.260;2023-04-23T06:17:09;281.80;6528.00
49052;DHT22;34866;48.670;18.260;2023-04-23T06:19:38;282.00;6528.00
49052;DHT22;34866;48.670;18.260;2023-04-23T06:22:04;282.10;6528.00
49052;DHT22;34866;48.670;18.260;2023-04-23T06:24:30;282.30;6528.00
49052;DHT22;34866;48.670;18.260;2023-04-23T06:26:56;282.10;6528.00
49052;DHT22;34866;48.670;18.260;2023-04-23T06:29:22;307.20;128.00
49052;DHT22;34866;48.670;18.260;2023-04-23T06:31:47;307.20;128.00
49052;DHT22;34866;48.670;18.260;2023-04-23T06:34:13;307.50;128.00
49052;DHT22;34866;48.670;18.260;2023-04-23T06:36:39;307.90;128.00
49052;DHT22;34866;48.670;18.260;2023-04-23T06:39:05;333.70;128.00
49052;DHT22;34866;48.670;18.260;2023-04-23T06:41:32;333.70;128.00
49052;DHT22;34866;48.670;18.260;2023-04-23T06:43:57;333.30;128.00
49052;DHT22;34866;48.670;18.260;2023-04-23T06:46:23;333.20;128.00
49052;DHT22;34866;48.670;18.260;2023-04-23T06:48:49;333.10;128.00
49052;DHT22;34866;48.670;18.260;2023-04-23T06:51:14;333.20;128.00
49052;DHT22;34866;48.670;18.260;2023-04-23T06:53:41;333.50;128.00
49052;DHT22;34866;48.670;18.260;2023-04-23T06:56:07;333.50;128.00
49052;DHT22;34866;48.670;18.260;2023-04-23T06:58:33;333.60;128.00
49052;DHT22;34866;48.670;18.260;2023-04-23T07:01:00;358.60;128.00
49052;DHT22;34866;48.670;18.260;2023-04-23T07:03:30;384.00;128.00
49052;DHT22;34866;48.670;18.260;2023-04-23T07:05:56;384.50;128.00
49052;DHT22;34866;48.670;18.260;2023-04-23T07:08:23;384.30;128.00
49052;DHT22;34866;48.670;18.260;2023-04-23T07:10:54;359.30;128.00
49052;DHT22;34866;48.670;18.260;2023-04-23T07:13:20;359.10;128.00
49052;DHT22;34866;48.670;18.260;2023-04-23T07:15:46;384.10;128.00
49052;DHT22;34866;48.670;18.260;2023-04-23T07:18:13;384.10;128.00
49052;DHT22;34866;48.670;18.260;2023-04-23T07:20:39;384.30;128.00
49052;DHT22;34866;48.670;18.260;2023-04-23T07:23:04;384.50;128.00
49052;DHT22;34866;48.670;18.260;2023-04-23T07:25:30;384.90;128.00
49052;DHT22;34866;48.670;18.260;2023-04-23T07:27:58;409.60;128.00
49052;DHT22;34866;48.670;18.260;2023-04-23T07:30:25;409.80;128.00
49052;DHT22;34866;48.670;18.260;2023-04-23T07:32:50;410.10;128.00
49052;DHT22;34866;48.670;18.260;2023-04-23T07:35:17;410.10;128.00
49052;DHT22;34866;48.670;18.260;2023-04-23T07:37:42;410.10;128.00
49052;DHT22;34866;48.670;18.260;2023-04-23T07:40:08;435.30;128.00
49052;DHT22;34866;48.670;18.260;2023-04-23T07:42:34;435.30;128.00
49052;DHT22;34866;48.670;18.260;2023-04-23T07:45:00;435.70;128.00
49052;DHT22;34866;48.670;18.260;2023-04-23T07:47:26;410.50;128.00
49052;DHT22;34866;48.670;18.260;2023-04-23T07:49:51;435.70;128.00
49052;DHT22;34866;48.670;18.260;2023-04-23T07:52:17;435.30;128.00
49052;DHT22;34866;48.670;18.260;2023-04-23T07:54:44;435.40;128.00
49052;DHT22;34866;48.670;18.260;2023-04-23T07:57:10;435.60;128.00
49052;DHT22;34866;48.670;18.260;2023-04-23T07:59:36;435.40;128.00
49052;DHT22;34866;48.670;18.260;2023-04-23T08:02:04;435.90;128.00
49052;DHT22;34866;48.670;18.260;2023-04-23T08:04:33;436.10;128.00
49052;DHT22;34866;48.670;18.260;2023-04-23T08:06:58;460.80;128.00
49052;DHT22;34866;48.670;18.260;2023-04-23T08:09:24;460.80;128.00
49052;DHT22;34866;48.670;18.260;2023-04-23T08:11:50;436.10;537.60
49052;DHT22;34866;48.670;18.260;2023-04-23T08:14:17;461.00;358.40
49052;DHT22;34866;48.670;18.260;2023-04-23T08:16:43;461.20;128.00
49052;DHT22;34866;48.670;18.260;2023-04-23T08:19:08;461.10;128.00
49052;DHT22;34866;48.670;18.260;2023-04-23T08:21:34;461.20;281.60
49052;DHT22;34866;48.670;18.260;2023-04-23T08:24:00;461.50;128.00
49052;DHT22;34866;48.670;18.260;2023-04-23T08:26:29;461.60;128.00
49052;DHT22;34866;48.670;18.260;2023-04-23T08:28:58;461.70;281.60
49052;DHT22;34866;48.670;18.260;2023-04-23T08:31:25;486.40;128.00
49052;DHT22;34866;48.670;18.260;2023-04-23T08:33:51;461.50;307.20
49052;DHT22;34866;48.670;18.260;2023-04-23T08:36:17;461.70;153.60
49052;DHT22;34866;48.670;18.260;2023-04-23T08:38:42;461.60;128.00
49052;DHT22;34866;48.670;18.260;2023-04-23T08:41:10;486.40;281.60
49052;DHT22;34866;48.670;18.260;2023-04-23T08:43:44;486.50;128.00
49052;DHT22;34866;48.670;18.260;2023-04-23T08:46:12;486.70;128.00
49052;DHT22;34866;48.670;18.260;2023-04-23T08:48:43;487.10;128.00
49052;DHT22;34866;48.670;18.260;2023-04-23T08:51:11;487.00;128.00
49052;DHT22;34866;48.670;18.260;2023-04-23T08:53:43;486.70;128.00
49052;DHT22;34866;48.670;18.260;2023-04-23T08:56:09;487.10;128.00
49052;DHT22;34866;48.670;18.260;2023-04-23T08:58:35;487.10;128.00
49052;DHT22;34866;48.670;18.260;2023-04-23T09:01:03;487.00;128.00
49052;DHT22;34866;48.670;18.260;2023-04-23T09:03:29;487.10;128.00
49052;DHT22;34866;48.670;18.260;2023-04-23T09:05:56;487.20;128.00
49052;DHT22;34866;48.670;18.260;2023-04-23T09:08:22;512.00;128.00
49052;DHT22;34866;48.670;18.260;2023-04-23T09:10:48;512.00;128.00
49052;DHT22;34866;48.670;18.260;2023-04-23T09:13:15;487.30;128.00
49052;DHT22;34866;48.670;18.260;2023-04-23T09:15:41;512.50;128.00
49052;DHT22;34866;48.670;18.260;2023-04-23T09:18:08;512.60;128.00
49052;DHT22;34866;48.670;18.260;2023-04-23T09:20:35;512.60;128.00
49052;DHT22;34866;48.670;18.260;2023-04-23T09:23:05;512.60;128.00
49052;DHT22;34866;48.670;18.260;2023-04-23T09:25:31;512.20;128.00
49052;DHT22;34866;48.670;18.260;2023-04-23T09:27:57;512.70;128.00
49052;DHT22;34866;48.670;18.260;2023-04-23T09:30:23;512.80;128.00
49052;DHT22;34866;48.670;18.260;2023-04-23T09:32:51;512.90;128.00
49052;DHT22;34866;48.670;18.260;2023-04-23T09:35:17;537.60;128.00
49052;DHT22;34866;48.670;18.260;2023-04-23T09:37:48;512.90;128.00
49052;DHT22;34866;48.670;18.260;2023-04-23T09:40:18;537.70;128.00
49052;DHT22;34866;48.670;18.260;2023-04-23T09:42:49;512.90;128.00
49052;DHT22;34866;48.670;18.260;2023-04-23T09:45:15;537.60;128.00
49052;DHT22;34866;48.670;18.260;2023-04-23T09:47:49;537.70;128.00
49052;DHT22;34866;48.670;18.260;2023-04-23T09:50:15;537.90;128.00
49052;DHT22;34866;48.670;18.260;2023-04-23T09:52:41;537.90;128.00
49052;DHT22;34866;48.670;18.260;2023-04-23T09:55:15;538.10;128.00
49052;DHT22;34866;48.670;18.260;2023-04-23T09:57:51;538.10;128.00
49052;DHT22;34866;48.670;18.260;2023-04-23T10:00:19;537.90;128.00
49052;DHT22;34866;48.670;18.260;2023-04-23T10:02:50;538.40;128.00
49052;DHT22;34866;48.670;18.260;2023-04-23T10:05:20;538.10;128.00
49052;DHT22;34866;48.670;18.260;2023-04-23T10:07:47;538.10;128.00
49052;DHT22;34866;48.670;18.260;2023-04-23T10:10:17;512.70;128.00
49052;DHT22;34866;48.670;18.260;2023-04-23T10:12:44;538.10;128.00
49052;DHT22;34866;48.670;18.260;2023-04-23T10:15:11;538.40;128.00
49052;DHT22;34866;48.670;18.260;2023-04-23T10:17:38;512.80;128.00
49052;DHT22;34866;48.670;18.260;2023-04-23T10:20:07;538.30;128.00
49052;DHT22;34866;48.670;18.260;2023-04-23T10:22:40;563.50;128.00
49052;DHT22;34866;48.670;18.260;2023-04-23T10:25:10;563.20;128.00
49052;DHT22;34866;48.670;18.260;2023-04-23T10:27:39;563.30;128.00
49052;DHT22;34866;48.670;18.260;2023-04-23T10:30:06;538.30;128.00
49052;DHT22;34866;48.670;18.260;2023-04-23T10:32:33;563.40;128.00
49052;DHT22;34866;48.670;18.260;2023-04-23T10:34:59;563.20;128.00
49052;DHT22;34866;48.670;18.260;2023-04-23T10:37:25;563.30;128.00
49052;DHT22;34866;48.670;18.260;2023-04-23T10:39:54;563.20;128.00
49052;DHT22;34866;48.670;18.260;2023-04-23T10:42:21;563.40;128.00
49052;DHT22;34866;48.670;18.260;2023-04-23T10:44:47;563.50;128.00
49052;DHT22;34866;48.670;18.260;2023-04-23T10:47:14;538.20;128.00
49052;DHT22;34866;48.670;18.260;2023-04-23T10:49:41;563.20;128.00
49052;DHT22;34866;48.670;18.260;2023-04-23T10:52:14;563.80;128.00
49052;DHT22;34866;48.670;18.260;2023-04-23T10:54:49;563.70;128.00
49052;DHT22;34866;48.670;18.260;2023-04-23T10:57:20;563.70;128.00
49052;DHT22;34866;48.670;18.260;2023-04-23T10:59:54;563.20;128.00
49052;DHT22;34866;48.670;18.260;2023-04-23T11:02:25;563.60;128.00
49052;DHT22;34866;48.670;18.260;2023-04-23T11:04:57;563.90;128.00
49052;DHT22;34866;48.670;18.260;2023-04-23T11:07:30;564.00;128.00
49052;DHT22;34866;48.670;18.260;2023-04-23T11:10:13;563.80;128.00
49052;DHT22;34866;48.670;18.260;2023-04-23T11:12:39;563.80;128.00
49052;DHT22;34866;48.670;18.260;2023-04-23T11:15:13;538.50;128.00
49052;DHT22;34866;48.670;18.260;2023-04-23T11:20:20;564.00;128.00
49052;DHT22;34866;48.670;18.260;2023-04-23T11:30:38;563.80;128.00
49052;DHT22;34866;48.670;18.260;2023-04-23T11:33:10;563.80;128.00
49052;DHT22;34866;48.670;18.260;2023-04-23T11:35:42;588.90;128.00
49052;DHT22;34866;48.670;18.260;2023-04-23T11:38:08;588.90;128.00
49052;DHT22;34866;48.670;18.260;2023-04-23T11:40:40;588.90;128.00
49052;DHT22;34866;48.670;18.260;2023-04-23T11:43:08;589.00;128.00
49052;DHT22;34866;48.670;18.260;2023-04-23T11:45:34;589.10;128.00
49052;DHT22;34866;48.670;18.260;2023-04-23T11:48:00;588.80;128.00
49052;DHT22;34866;48.670;18.260;2023-04-23T11:50:27;588.80;128.00
49052;DHT22;34866;48.670;18.260;2023-04-23T11:52:54;589.50;128.00
49052;DHT22;34866;48.670;18.260;2023-04-23T11:55:21;589.40;128.00
49052;DHT22;34866;48.670;18.260;2023-04-23T11:57:48;563.80;128.00
49052;DHT22;34866;48.670;18.260;2023-04-23T12:00:34;588.90;128.00
49052;DHT22;34866;48.670;18.260;2023-04-23T12:03:06;588.80;128.00
49052;DHT22;34866;48.670;18.260;2023-04-23T12:05:35;563.90;128.00
49052;DHT22;34866;48.670;18.260;2023-04-23T12:08:18;563.90;128.00
49052;DHT22;34866;48.670;18.260;2023-04-23T12:11:00;589.30;128.00
49052;DHT22;34866;48.670;18.260;2023-04-23T12:13:32;589.20;128.00
49052;DHT22;34866;48.670;18.260;2023-04-23T12:16:00;563.90;128.00
49052;DHT22;34866;48.670;18.260;2023-04-23T12:18:30;563.40;128.00
49052;DHT22;34866;48.670;18.260;2023-04-23T12:21:04;589.10;128.00
49052;DHT22;34866;48.670;18.260;2023-04-23T12:23:30;563.40;128.00
49052;DHT22;34866;48.670;18.260;2023-04-23T12:26:01;563.50;128.00
49052;DHT22;34866;48.670;18.260;2023-04-23T12:28:27;563.60;128.00
49052;DHT22;34866;48.670;18.260;2023-04-23T12:31:00;563.30;128.00
49052;DHT22;34866;48.670;18.260;2023-04-23T12:33:31;563.40;128.00
49052;DHT22;34866;48.670;18.260;2023-04-23T12:35:57;563.40;128.00
49052;DHT22;34866;48.670;18.260;2023-04-23T12:38:28;563.20;128.00
49052;DHT22;34866;48.670;18.260;2023-04-23T12:40:59;563.70;128.00
49052;DHT22;34866;48.670;18.260;2023-04-23T12:43:35;588.80;128.00
49052;DHT22;34866;48.670;18.260;2023-04-23T12:46:01;563.90;128.00
49052;DHT22;34866;48.670;18.260;2023-04-23T12:48:32;564.00;128.00
49052;DHT22;34866;48.670;18.260;2023-04-23T12:50:58;563.90;128.00
49052;DHT22;34866;48.670;18.260;2023-04-23T12:53:24;588.80;128.00
49052;DHT22;34866;48.670;18.260;2023-04-23T12:55:49;563.90;128.00
49052;DHT22;34866;48.670;18.260;2023-04-23T12:58:15;563.50;128.00
49052;DHT22;34866;48.670;18.260;2023-04-23T13:00:41;563.60;128.00
49052;DHT22;34866;48.670;18.260;2023-04-23T13:03:06;563.40;128.00
49052;DHT22;34866;48.670;18.260;2023-04-23T13:05:32;538.30;128.00
49052;DHT22;34866;48.670;18.260;2023-04-23T13:07:58;538.50;128.00
49052;DHT22;34866;48.670;18.260;2023-04-23T13:10:24;563.60;128.00
49052;DHT22;34866;48.670;18.260;2023-04-23T13:12:53;563.20;128.00
49052;DHT22;34866;48.670;18.260;2023-04-23T13:15:19;538.50;128.00
49052;DHT22;34866;48.670;18.260;2023-04-23T13:17:44;563.40;128.00
49052;DHT22;34866;48.670;18.260;2023-04-23T13:20:11;563.20;128.00
49052;DHT22;34866;48.670;18.260;2023-04-23T13:22:36;538.40;128.00
49052;DHT22;34866;48.670;18.260;2023-04-23T13:25:04;563.50;128.00
49052;DHT22;34866;48.670;18.260;2023-04-23T13:27:29;563.30;128.00
49052;DHT22;34866;48.670;18.260;2023-04-23T13:29:55;563.40;128.00
49052;DHT22;34866;48.670;18.260;2023-04-23T13:32:27;563.50;128.00
49052;DHT22;34866;48.670;18.260;2023-04-23T13:34:56;563.30;128.00
49052;DHT22;34866;48.670;18.260;2023-04-23T13:37:26;538.30;128.00
49052;DHT22;34866;48.670;18.260;2023-04-23T13:39:53;563.30;128.00
49052;DHT22;34866;48.670;18.260;2023-04-23T13:42:19;563.50;128.00
49052;DHT22;34866;48.670;18.260;2023-04-23T13:44:44;563.60;128.00
49052;DHT22;34866;48.670;18.260;2023-04-23T13:47:13;563.80;128.00
49052;DHT22;34866;48.670;18.260;2023-04-23T13:49:40;563.70;128.00
49052;DHT22;34866;48.670;18.260;2023-04-23T13:52:06;563.70;128.00
49052;DHT22;34866;48.670;18.260;2023-04-23T13:54:33;563.90;128.00
49052;DHT22;34866;48.670;18.260;2023-04-23T13:57:04;563.70;128.00
49052;DHT22;34866;48.670;18.260;2023-04-23T13:59:35;563.90;128.00
49052;DHT22;34866;48.670;18.260;2023-04-23T14:02:02;563.80;128.00
49052;DHT22;34866;48.670;18.260;2023-04-23T14:04:27;563.60;128.00
49052;DHT22;34866;48.670;18.260;2023-04-23T14:06:53;563.20;128.00
49052;DHT22;34866;48.670;18.260;2023-04-23T14:09:19;563.40;128.00
49052;DHT22;34866;48.670;18.260;2023-04-23T14:11:46;563.40;128.00
49052;DHT22;34866;48.670;18.260;2023-04-23T14:14:12;563.40;128.00
49052;DHT22;34866;48.670;18.260;2023-04-23T14:16:38;563.70;128.00
49052;DHT22;34866;48.670;18.260;2023-04-23T14:19:03;563.90;128.00
49052;DHT22;34866;48.670;18.260;2023-04-23T14:21:29;589.00;128.00
49052;DHT22;34866;48.670;18.260;2023-04-23T14:26:27;588.80;128.00
49052;DHT22;34866;48.670;18.260;2023-04-23T14:28:56;564.10;128.00
49052;DHT22;34866;48.670;18.260;2023-04-23T14:31:27;563.80;128.00
49052;DHT22;34866;48.670;18.260;2023-04-23T14:33:55;564.10;128.00
49052;DHT22;34866;48.670;18.260;2023-04-23T14:36:24;564.00;128.00
49052;DHT22;34866;48.670;18.260;2023-04-23T14:38:50;563.90;128.00
49052;DHT22;34866;48.670;18.260;2023-04-23T14:41:15;564.00;128.00
49052;DHT22;34866;48.670;18.260;2023-04-23T14:43:44;588.80;128.00
49052;DHT22;34866;48.670;18.260;2023-04-23T14:46:10;564.10;128.00
49052;DHT22;34866;48.670;18.260;2023-04-23T14:48:35;563.90;128.00
49052;DHT22;34866;48.670;18.260;2023-04-23T14:51:01;563.90;128.00
49052;DHT22;34866;48.670;18.260;2023-04-23T14:53:27;564.10;128.00
49052;DHT22;34866;48.670;18.260;2023-04-23T14:55:52;589.10;128.00